Flight Track Log - Related Links

Times and Time Zones

All times are in EDT time to prevent confusion due to time zone crossing. See the SWA3390 flight status page for this flight to view local times or setup timezone preferences in your user account.

Time Position Orientation Groundspeed Altitude Reporting Facility
EDT Latitude Longitude Course Direction KTS MPH feet Rate Location/Type
Wed 11:32:37 AM 42.8720 -73.8940 316° Northwest 233 268 7,100  Level FlightAware ADS-B
Wed 11:33:05 AM 42.8980 -73.9260 318° Northwest 239 275 9,100 3,000 Climbing FlightAware ADS-B
Wed 11:33:47 AM 42.9330 -73.9740 315° West 289 333 10,600 2,506 Climbing FlightAware ADS-B
Wed 11:34:24 AM 42.9740 -74.0290 316° Northwest 321 369 12,400 3,259 Climbing FlightAware ADS-B
Wed 11:35:08 AM 43.0220 -74.0940 315° West 332 382 15,000 2,429 Climbing FlightAware ADS-B
Wed 11:35:48 AM 43.0600 -74.1490 313° West 342 394 15,800 1,200 Climbing FlightAware ADS-B
Wed 11:35:58 AM 43.0670 -74.1760 290° West 349 402 16,000 2,400 Climbing FlightAware ADS-B
Wed 11:36:38 AM 43.0430 -74.2500 246° West 380 437 17,800 2,897 Climbing FlightAware ADS-B
Wed 11:37:25 AM 42.9630 -74.3200 213° Southwest 403 464 20,200 2,835 Climbing FlightAware ADS-B
Wed 11:38:09 AM 42.8920 -74.3790 211° Southwest 420 483 22,100 2,571 Climbing FlightAware ADS-B
Wed 11:38:21 AM 42.8670 -74.3860 192° South 426 490 22,600 1,862 Climbing FlightAware ADS-B
Wed 11:38:38 AM 42.8360 -74.3810 173° South 433 498 23,000 2,000 Climbing FlightAware ADS-B
Wed 11:39:27 AM 42.7460 -74.3280 157° South 438 504 24,800 2,308 Climbing FlightAware ADS-B
Wed 11:40:09 AM 42.6670 -74.2870 159° South 445 512 26,500 2,234 Climbing FlightAware ADS-B
Wed 11:41:01 AM 42.5630 -74.2430 163° South 454 522 28,300 1,392 Climbing FlightAware ADS-B
Wed 11:42:14 AM 42.4220 -74.2130 171° South 462 532 29,400 617 Climbing FlightAware ADS-B
Wed 11:42:48 AM 42.3610 -74.2000 171° South 462 532 29,400 2,824 Level FlightAware ADS-B
Wed 11:43:39 AM 42.2310 -74.1720 171° South 468 539 33,400 2,667 Climbing FlightAware ADS-B
Wed 11:44:18 AM 42.1610 -74.1550 170° South 468 539 33,400 2,320 Level FlightAware ADS-B
Wed 11:44:54 AM 42.0670 -74.1740 189° South 449 517 36,300 2,561 Climbing FlightAware ADS-B
Wed 11:45:40 AM 41.9830 -74.2040 195° South 446 513 36,900 1,537 Climbing FlightAware ADS-B
Wed 11:46:16 AM 41.9040 -74.2310 194° South 445 512 38,400 1,833 Climbing FlightAware ADS-B
Wed 11:46:52 AM 41.8300 -74.2560 194° South 446 513 39,100 1,154 Climbing FlightAware ADS-B
Wed 11:47:34 AM 41.7470 -74.2840 194° South 445 512 39,900 659 Climbing FlightAware ADS-B
Wed 11:48:14 AM 41.6700 -74.3110 195° South 446 513 40,000 77 Climbing FlightAware ADS-B
Wed 11:48:52 AM 41.5910 -74.3380 194° South 445 512 40,000  Level FlightAware ADS-B
Wed 11:49:34 AM 41.5090 -74.3670 195° South 444 511 40,000  Level FlightAware ADS-B
Wed 11:50:14 AM 41.4290 -74.3950 195° South 443 510 40,000  Level FlightAware ADS-B
Wed 11:50:58 AM 41.3420 -74.4260 195° South 443 510 40,000  Level FlightAware ADS-B
Wed 11:51:34 AM 41.2690 -74.4510 194° South 443 510 40,000  Level FlightAware ADS-B
Wed 11:52:22 AM 41.1750 -74.4830 194° South 442 509 40,000  Level FlightAware ADS-B
Wed 11:53:00 AM 41.1020 -74.5090 195° South 441 507 40,000  Level FlightAware ADS-B
Wed 11:53:40 AM 41.0200 -74.5360 194° South 441 507 40,000  Level FlightAware ADS-B
Wed 11:54:24 AM 40.9370 -74.5650 195° South 440 506 40,000  Level FlightAware ADS-B
Wed 11:55:04 AM 40.8550 -74.5930 194° South 441 507 40,000  Level FlightAware ADS-B
Wed 11:55:45 AM 40.7800 -74.6180 194° South 440 506 40,000  Level FlightAware ADS-B
Wed 11:56:28 AM 40.6910 -74.6490 195° South 442 509 40,000  Level FlightAware ADS-B
Wed 11:57:04 AM 40.6180 -74.6740 195° South 443 510 40,000  Level FlightAware ADS-B
Wed 11:57:52 AM 40.5230 -74.7050 194° South 445 512 40,000  Level FlightAware ADS-B
Wed 11:58:24 AM 40.4590 -74.7270 195° South 446 513 40,000  Level FlightAware ADS-B
Wed 11:59:06 AM 40.3760 -74.7550 194° South 446 513 40,000  Level FlightAware ADS-B
Wed 11:59:50 AM 40.2870 -74.7850 194° South 447 514 40,000  Level FlightAware ADS-B
Wed 12:02:50 PM 39.9890 -74.8830 194° South 448 516 40,000  Level FlightAware ADS-B
Wed 12:03:46 PM 39.8460 -74.9320 195° South 444 511 40,000  Level FlightAware ADS-B
Wed 12:04:25 PM 39.7680 -74.9570 194° South 435 501 40,000  Level FlightAware ADS-B
Wed 12:05:07 PM 39.6620 -74.9930 195° South 434 499 40,000  Level FlightAware ADS-B
Wed 12:06:04 PM 39.5430 -75.0310 194° South 443 510 40,000  Level FlightAware ADS-B
Wed 12:06:38 PM 39.4740 -75.0540 194° South 444 511 40,000  Level FlightAware ADS-B
Wed 12:07:20 PM 39.3920 -75.0810 194° South 444 511 40,000  Level FlightAware ADS-B
Wed 12:08:13 PM 39.2880 -75.1160 195° South 445 512 40,000  Level FlightAware ADS-B
Wed 12:09:00 PM 39.1940 -75.1560 198° South 446 513 40,000  Level FlightAware ADS-B
Wed 12:09:40 PM 39.1150 -75.1890 198° South 447 514 40,000  Level FlightAware ADS-B
Wed 12:10:38 PM 39.0010 -75.2370 198° South 447 514 40,000  Level FlightAware ADS-B
Wed 12:12:09 PM 38.8310 -75.3080 198° South 449 517 40,000  Level FlightAware ADS-B
Wed 12:12:56 PM 38.7260 -75.3520 198° South 449 517 40,000  Level FlightAware ADS-B
Wed 12:13:51 PM 38.6210 -75.3960 198° South 449 517 40,000  Level FlightAware ADS-B
Wed 12:14:32 PM 38.5390 -75.4300 198° South 447 514 40,000  Level FlightAware ADS-B
Wed 12:15:10 PM 38.4640 -75.4620 198° South 444 511 40,000  Level FlightAware ADS-B
Wed 12:15:52 PM 38.3830 -75.4950 198° South 443 510 40,000  Level FlightAware ADS-B
Wed 12:16:39 PM 38.2980 -75.5310 198° South 442 509 40,000  Level FlightAware ADS-B
Wed 12:17:24 PM 38.2060 -75.5710 199° South 439 505 40,000  Level FlightAware ADS-B
Wed 12:17:59 PM 38.1390 -75.6020 200° South 433 498 40,000  Level FlightAware ADS-B
Wed 12:18:38 PM 38.0680 -75.6380 202° Southwest 432 497 40,000  Level FlightAware ADS-B
Wed 12:19:31 PM 37.9700 -75.6860 201° Southwest 433 498 40,000  Level FlightAware ADS-B
Wed 12:23:40 PM 37.5120 -75.9050 201° Southwest 434 499 40,000  Level FlightAware ADS-B
Wed 12:24:22 PM 37.4170 -75.9510 201° Southwest 434 499 40,000  Level FlightAware ADS-B
Wed 12:25:02 PM 37.3310 -75.9920 201° Southwest 431 496 40,000  Level FlightAware ADS-B
Wed 12:25:35 PM 37.2770 -76.0170 200° South 431 496 40,000  Level FlightAware ADS-B
Wed 12:26:06 PM 37.2140 -76.0470 201° Southwest 430 495 40,000  Level FlightAware ADS-B
Wed 12:26:41 PM 37.1440 -76.0800 201° Southwest 429 494 40,000  Level FlightAware ADS-B
Wed 12:27:37 PM 37.0370 -76.1310 201° Southwest 438 504 40,000  Level FlightAware ADS-B
Wed 12:28:28 PM 36.9450 -76.1740 200° South 440 506 40,000  Level FlightAware ADS-B
Wed 12:29:25 PM 36.8440 -76.2220 201° Southwest 434 499 40,000  Level FlightAware ADS-B
Wed 12:30:05 PM 36.7690 -76.2570 200° South 443 510 40,000  Level FlightAware ADS-B
Wed 12:30:48 PM 36.6890 -76.2950 201° Southwest 443 510 40,000  Level FlightAware ADS-B
Wed 12:31:33 PM 36.5890 -76.3410 200° South 433 498 40,000  Level FlightAware ADS-B
Wed 12:32:14 PM 36.5120 -76.3770 201° Southwest 433 498 40,000  Level FlightAware ADS-B
Wed 12:32:58 PM 36.4250 -76.4170 200° South 432 497 40,000  Level FlightAware ADS-B
Wed 12:33:38 PM 36.3490 -76.4520 200° South 431 496 40,000  Level FlightAware ADS-B
Wed 12:34:23 PM 36.2640 -76.4920 201° Southwest 431 496 40,000  Level FlightAware ADS-B
Wed 12:35:08 PM 36.1780 -76.5310 200° South 430 495 40,000  Level FlightAware ADS-B
Wed 12:35:43 PM 36.1120 -76.5610 200° South 430 495 40,000  Level FlightAware ADS-B
Wed 12:36:28 PM 36.0270 -76.6000 200° South 428 493 40,000  Level FlightAware ADS-B
Wed 12:37:01 PM 35.9810 -76.6210 200° South 428 493 40,000  Level FlightAware ADS-B
Wed 12:37:33 PM 35.9040 -76.6560 200° South 427 491 40,000  Level FlightAware ADS-B
Wed 12:38:18 PM 35.8380 -76.6860 200° South 427 491 40,000  Level FlightAware ADS-B
Wed 12:39:06 PM 35.7620 -76.7200 200° South 427 491 40,000  Level FlightAware ADS-B
Wed 12:39:54 PM 35.6870 -76.7540 200° South 427 491 40,000  Level FlightAware ADS-B
Wed 12:40:30 PM 35.6300 -76.7800 200° South 427 491 40,000  Level FlightAware ADS-B
Wed 12:41:18 PM 35.5540 -76.8130 199° South 427 491 40,000  Level FlightAware ADS-B
Wed 12:41:55 PM 35.4960 -76.8400 201° Southwest 427 491 40,000  Level FlightAware ADS-B
Wed 12:42:43 PM 35.4200 -76.8730 199° South 427 491 40,000  Level FlightAware ADS-B
Wed 12:43:20 PM 35.3620 -76.9000 201° Southwest 427 491 40,000  Level FlightAware ADS-B
Wed 12:44:06 PM 35.2890 -76.9320 200° South 427 491 40,000  Level FlightAware ADS-B
Wed 12:44:42 PM 35.2320 -76.9570 200° South 427 491 40,000  Level FlightAware ADS-B
Wed 12:45:20 PM 35.1720 -76.9840 200° South 427 491 40,000  Level FlightAware ADS-B
Wed 12:46:06 PM 35.1000 -77.0160 200° South 427 491 40,000  Level FlightAware ADS-B
Wed 12:46:32 PM 35.0590 -77.0340 200° South 427 491 40,000  Level FlightAware ADS-B
Wed 12:47:20 PM 34.9830 -77.0680 200° South 427 491 40,000  Level FlightAware ADS-B
Wed 12:48:23 PM 34.6931 -77.2011 200° South 435 501 40,000  Level Washington Center
Wed 12:49:24 PM 34.5797 -77.2519 200° South 435 501 40,000  Level Washington Center
Wed 12:50:25 PM 34.4664 -77.3025 200° South 435 501 40,000  Level Washington Center
Wed 12:51:23 PM 34.3550 -77.3531 201° Southwest 435 501 40,000  Level Washington Center
Wed 12:52:23 PM 34.2436 -77.3983 199° South 430 495 40,000  Level Washington Center
Wed 12:53:24 PM 34.1283 -77.4486 200° South 435 501 40,000  Level Washington Center
Wed 12:54:42 PM 33.9719 -77.5114 198° South 448 516 40,000  Level Jacksonville Center
Wed 12:55:42 PM 33.8575 -77.5661 202° Southwest 454 522 40,000  Level Jacksonville Center
Wed 12:56:42 PM 33.7447 -77.6128 199° South 454 522 40,000  Level Jacksonville Center
Wed 12:57:42 PM 33.6153 -77.6631 198° South 446 513 40,000  Level Jacksonville Center
Wed 12:58:42 PM 33.4983 -77.7122 199° South 441 507 40,000  Level Jacksonville Center
Wed 12:59:42 PM 33.3814 -77.7614 199° South 441 507 40,000  Level Jacksonville Center
Wed 01:00:42 PM 33.2625 -77.8078 198° South 441 507 40,000  Level Jacksonville Center
Wed 01:01:42 PM 33.1472 -77.8517 198° South 441 507 40,000  Level Jacksonville Center
Wed 01:02:42 PM 33.0303 -77.9003 199° South 441 507 40,000  Level Jacksonville Center
Wed 01:03:42 PM 32.9131 -77.9464 198° South 441 507 40,000  Level Jacksonville Center
Wed 01:04:42 PM 32.7961 -77.9950 199° South 441 507 40,000  Level Jacksonville Center
Wed 01:05:42 PM 32.6789 -78.0431 199° South 441 507 40,000  Level Jacksonville Center
Wed 01:06:42 PM 32.5597 -78.0889 198° South 441 507 40,000  Level Jacksonville Center
Wed 01:07:42 PM 32.4444 -78.1319 197° South 441 507 40,000  Level Jacksonville Center
Wed 01:08:42 PM 32.3272 -78.1822 200° South 441 507 40,000  Level Jacksonville Center
Wed 01:09:42 PM 32.2097 -78.2228 196° South 441 507 40,000  Level Jacksonville Center
Wed 01:10:42 PM 32.0925 -78.2706 199° South 441 507 40,000  Level Jacksonville Center
Wed 01:11:42 PM 31.9775 -78.3178 199° South 441 507 40,000  Level Jacksonville Center
Wed 01:12:42 PM 31.8622 -78.3628 198° South 436 502 40,000  Level Jacksonville Center
Wed 01:13:42 PM 31.7447 -78.4075 198° South 436 502 40,000  Level Jacksonville Center
Wed 01:14:42 PM 31.6294 -78.4497 197° South 436 502 40,000  Level Jacksonville Center
Wed 01:15:42 PM 31.5186 -78.5061 203° Southwest 436 502 40,000  Level Jacksonville Center
Wed 01:16:42 PM 31.4075 -78.5528 200° South 442 509 40,000  Level Jacksonville Center
Wed 01:17:42 PM 31.2900 -78.5994 199° South 442 509 40,000  Level Jacksonville Center
Wed 01:18:42 PM 31.1658 -78.6294 192° South 442 509 40,000  Level Jacksonville Center
Wed 01:19:42 PM 31.0506 -78.6733 198° South 437 503 40,000  Level Jacksonville Center
Wed 01:20:42 PM 30.9375 -78.7269 202° Southwest 437 503 40,000  Level Jacksonville Center
Wed 01:21:42 PM 30.8261 -78.7731 200° South 437 503 40,000  Level Jacksonville Center
Wed 01:22:42 PM 30.7169 -78.8164 199° South 432 497 40,000  Level Jacksonville Center
Wed 01:23:42 PM 30.6036 -78.8597 198° South 429 494 40,000  Level Jacksonville Center
Wed 01:24:42 PM 30.4919 -78.9008 198° South 419 482 40,000  Level Jacksonville Center
Wed 01:25:30 PM 30.4092 -78.9333 199° South 426 490 40,000  Level Miami Center
Wed 01:26:30 PM 30.2958 -78.9769 198° South 420 483 40,000  Level Miami Center
Wed 01:27:30 PM 30.1869 -79.0156 197° South 420 483 40,000  Level Miami Center
Wed 01:28:30 PM 30.0717 -79.0611 199° South 425 489 40,000  Level Miami Center
Wed 01:29:30 PM 29.9772 -79.1000 200° South 427 491 40,000  Level Miami Center
Wed 01:30:30 PM 29.8617 -79.1431 198° South 421 484 40,000  Level Miami Center
Wed 01:31:30 PM 29.7486 -79.1739 193° South 421 484 40,000  Level Miami Center
Wed 01:32:30 PM 29.6314 -79.2003 191° South 421 484 40,000  Level Miami Center
Wed 01:33:30 PM 29.5203 -79.2358 196° South 427 491 40,000  Level Miami Center
Wed 01:34:30 PM 29.3989 -79.2594 190° South 432 497 40,000  Level Miami Center
Wed 01:35:30 PM 29.2836 -79.2903 193° South 432 497 40,000  Level Miami Center
Wed 01:36:30 PM 29.1683 -79.3208 193° South 432 497 40,000  Level Miami Center
Wed 01:37:30 PM 29.0511 -79.3517 193° South 427 491 40,000  Level Miami Center
Wed 01:38:30 PM 28.9317 -79.3772 191° South 433 498 40,000  Level Miami Center
Wed 01:39:30 PM 28.8164 -79.4056 192° South 428 493 40,000  Level Miami Center
Wed 01:40:30 PM 28.7075 -79.4361 194° South 428 493 40,000  Level Miami Center
Wed 01:41:30 PM 28.5922 -79.4642 192° South 422 486 40,000 -91 Level Miami Center
Wed 01:47:07 PM 27.9610 -79.6170 192° South 393 452 39,400 -336 Descending FlightAware ADS-B
Wed 01:47:45 PM 27.8940 -79.6340 193° South 391 450 37,900 -2,444 Descending FlightAware ADS-B
Wed 01:48:28 PM 27.8180 -79.6520 192° South 394 453 36,100 -2,854 Descending FlightAware ADS-B
Wed 01:49:07 PM 27.7460 -79.6700 192° South 409 471 34,000 -3,106 Descending FlightAware ADS-B
Wed 01:49:53 PM 27.6590 -79.6910 192° South 425 489 31,700 -2,932 Descending FlightAware ADS-B
Wed 01:50:35 PM 27.5770 -79.7110 192° South 422 486 29,700 -2,667 Descending FlightAware ADS-B
Wed 01:51:14 PM 27.5040 -79.7280 192° South 417 480 28,100 -2,458 Descending FlightAware ADS-B
Wed 01:51:58 PM 27.4210 -79.7480 192° South 413 475 26,300 -2,442 Descending FlightAware ADS-B
Wed 01:52:40 PM 27.3440 -79.7670 192° South 408 470 24,600 -1,694 Descending FlightAware ADS-B
Wed 01:53:23 PM 27.2670 -79.7850 192° South 389 448 23,900 -1,024 Descending FlightAware ADS-B
Wed 01:54:02 PM 27.1980 -79.8100 198° South 398 458 23,200 -1,012 Descending FlightAware ADS-B
Wed 01:54:46 PM 27.1210 -79.8430 201° Southwest 398 458 22,500 -944 Descending FlightAware ADS-B
Wed 01:55:31 PM 27.0430 -79.8770 201° Southwest 394 453 21,800 -1,465 Descending FlightAware ADS-B
Wed 01:56:12 PM 26.9760 -79.9140 206° Southwest 391 450 20,400 -2,127 Descending FlightAware ADS-B
Wed 01:56:50 PM 26.9160 -79.9480 207° Southwest 383 441 19,000 -2,096 Descending FlightAware ADS-B
Wed 01:57:35 PM 26.8450 -79.9880 207° Southwest 372 428 17,500 -2,122 Descending FlightAware ADS-B
Wed 01:58:12 PM 26.7890 -80.0220 208° Southwest 365 420 16,100 -2,313 Descending FlightAware ADS-B
Wed 01:58:58 PM 26.7200 -80.0590 206° Southwest 360 414 14,300 -2,505 Descending FlightAware ADS-B
Wed 01:59:55 PM 26.6260 -80.0710 187° South 351 404 11,800 -2,227 Descending FlightAware ADS-B
Wed 02:00:35 PM 26.5620 -80.0690 178° South 330 380 10,700 -1,185 Descending FlightAware ADS-B
Wed 02:01:16 PM 26.5020 -80.0670 178° South 297 342 10,200 -923 Descending FlightAware ADS-B
Wed 02:01:40 PM 26.4700 -80.0650 177° South 290 334 9,700 -1,200 Descending FlightAware ADS-B
Wed 02:02:06 PM 26.4350 -80.0630 177° South 281 323 9,200 -1,286 Descending FlightAware ADS-B
Wed 02:02:22 PM 26.4170 -80.0630 180° South 279 321 8,800 -1,535 Descending FlightAware ADS-B
Wed 02:02:49 PM 26.3800 -80.0610 177° South 275 316 8,100 -1,385 Descending FlightAware ADS-B
Wed 02:03:01 PM 26.3650 -80.0600 177° South 271 312 7,900 -486 Descending FlightAware ADS-B
Wed 02:03:26 PM 26.3330 -80.0590 178° South 267 307 7,800 -162 Descending FlightAware ADS-B
Wed 02:03:38 PM 26.3190 -80.0590 180° South 269 310 7,800  Level FlightAware ADS-B
Wed 02:04:06 PM 26.2830 -80.0570 177° South 273 314 7,800  Level FlightAware ADS-B
Wed 02:04:33 PM 26.2500 -80.0560 178° South 276 318 7,800 -211 Level FlightAware ADS-B
Wed 02:05:03 PM 26.2130 -80.0590 184° South 279 321 7,600 -964 Descending FlightAware ADS-B
Wed 02:05:29 PM 26.1850 -80.0820 216° Southwest 280 322 6,900 -1,579 Descending FlightAware ADS-B
Wed 02:06:00 PM 26.1580 -80.1150 228° Southwest 283 326 6,100 -1,256 Descending FlightAware ADS-B
Wed 02:06:12 PM 26.1560 -80.1330 263° West 276 318 6,000 -450 Descending FlightAware ADS-B
Wed 02:06:40 PM 26.1540 -80.1710 267° West 259 298 5,800 -511 Descending FlightAware ADS-B
Wed 02:06:59 PM 26.1530 -80.1950 267° West 251 289 5,600 -667 Descending FlightAware ADS-B
Wed 02:07:16 PM 26.1520 -80.2170 267° West 244 281 5,400 -894 Descending FlightAware ADS-B
Wed 02:07:46 PM 26.1500 -80.2530 266° West 242 278 4,900 -526 Descending FlightAware ADS-B
Wed 02:08:13 PM 26.1480 -80.2820 266° West 242 278 4,900 -900 Level FlightAware ADS-B
Wed 02:12:26 PM 26.0770 -80.2170 141° Southeast 123 142 700 -881 Descending FlightAware ADS-B
Wed 02:12:59 PM 26.0770 -80.1980 90° East 123 142 700 -655 Level FlightAware ADS-B
Wed 02:13:21 PM 26.0770 -80.1800 90° East 127 146 100 -643 Descending FlightAware ADS-B
Wed 02:13:55 PM 26.0770 -80.1610 90° East 127 146 100  Level FlightAware ADS-B
Wed 02:20:00 PM 26.0667 -80.1500 103° East  Level FlightAware Approximate
Wed 02:21:00 PM 26.0726 -80.1527 103° East  Level Estimated

Login

Don't have an account? Register now (free) for customized features, flight alerts, and more!